sensor_id;sensor_type;location;lat;lon;timestamp;temperature;humidity
72355;SHT30;60314;55.040;73.076;2023-05-10T00:02:24;3.28;51.73
72355;SHT30;60314;55.040;73.076;2023-05-10T00:07:44;3.51;51.24
72355;SHT30;60314;55.040;73.076;2023-05-10T00:13:04;4.48;48.15
72355;SHT30;60314;55.040;73.076;2023-05-10T00:18:24;4.00;49.28
72355;SHT30;60314;55.040;73.076;2023-05-10T00:23:44;3.90;49.86
72355;SHT30;60314;55.040;73.076;2023-05-10T00:29:04;4.45;48.74
72355;SHT30;60314;55.040;73.076;2023-05-10T00:34:24;6.60;43.40
72355;SHT30;60314;55.040;73.076;2023-05-10T00:39:44;8.68;38.68
72355;SHT30;60314;55.040;73.076;2023-05-10T00:45:05;9.61;36.89
72355;SHT30;60314;55.040;73.076;2023-05-10T00:50:25;10.29;35.77
72355;SHT30;60314;55.040;73.076;2023-05-10T00:55:27;11.32;33.52
72355;SHT30;60314;55.040;73.076;2023-05-10T01:00:47;11.90;32.39
72355;SHT30;60314;55.040;73.076;2023-05-10T01:06:08;12.95;30.44
72355;SHT30;60314;55.040;73.076;2023-05-10T01:11:29;13.76;29.22
72355;SHT30;60314;55.040;73.076;2023-05-10T01:16:50;14.27;28.50
72355;SHT30;60314;55.040;73.076;2023-05-10T01:39:58;19.08;22.39
72355;SHT30;60314;55.040;73.076;2023-05-10T01:45:33;19.19;22.47
72355;SHT30;60314;55.040;73.076;2023-05-10T01:50:56;21.85;19.57
72355;SHT30;60314;55.040;73.076;2023-05-10T01:56:05;21.61;19.88
72355;SHT30;60314;55.040;73.076;2023-05-10T02:01:08;22.36;19.10
72355;SHT30;60314;55.040;73.076;2023-05-10T02:06:30;23.42;18.28
72355;SHT30;60314;55.040;73.076;2023-05-10T02:11:52;23.90;17.95
72355;SHT30;60314;55.040;73.076;2023-05-10T02:17:14;24.67;17.20
72355;SHT30;60314;55.040;73.076;2023-05-10T02:22:35;26.06;16.39
72355;SHT30;60314;55.040;73.076;2023-05-10T02:27:57;27.19;15.68
72355;SHT30;60314;55.040;73.076;2023-05-10T02:33:21;27.88;15.29
72355;SHT30;60314;55.040;73.076;2023-05-10T02:38:43;28.82;14.79
72355;SHT30;60314;55.040;73.076;2023-05-10T02:44:06;29.53;14.37
72355;SHT30;60314;55.040;73.076;2023-05-10T02:49:27;29.59;14.21
72355;SHT30;60314;55.040;73.076;2023-05-10T02:54:50;28.72;14.54
72355;SHT30;60314;55.040;73.076;2023-05-10T03:05:51;31.41;13.02
72355;SHT30;60314;55.040;73.076;2023-05-10T03:16:45;31.70;12.80
72355;SHT30;60314;55.040;73.076;2023-05-10T03:22:10;31.11;13.00
72355;SHT30;60314;55.040;73.076;2023-05-10T03:27:32;33.25;11.92
72355;SHT30;60314;55.040;73.076;2023-05-10T03:32:53;33.11;12.04
72355;SHT30;60314;55.040;73.076;2023-05-10T03:38:14;34.00;11.54
72355;SHT30;60314;55.040;73.076;2023-05-10T03:43:34;34.61;11.19
72355;SHT30;60314;55.040;73.076;2023-05-10T03:48:53;34.89;11.08
72355;SHT30;60314;55.040;73.076;2023-05-10T03:54:13;32.65;11.67
72355;SHT30;60314;55.040;73.076;2023-05-10T03:59:34;33.25;11.00
72355;SHT30;60314;55.040;73.076;2023-05-10T04:04:54;31.18;12.06
72355;SHT30;60314;55.040;73.076;2023-05-10T04:10:15;33.45;11.15
72355;SHT30;60314;55.040;73.076;2023-05-10T04:15:17;35.19;10.59
72355;SHT30;60314;55.040;73.076;2023-05-10T04:20:18;35.49;10.45
72355;SHT30;60314;55.040;73.076;2023-05-10T04:25:20;35.69;10.21
72355;SHT30;60314;55.040;73.076;2023-05-10T04:30:40;35.61;10.39
72355;SHT30;60314;55.040;73.076;2023-05-10T04:36:00;34.62;10.75
72355;SHT30;60314;55.040;73.076;2023-05-10T04:41:19;31.35;11.54
72355;SHT30;60314;55.040;73.076;2023-05-10T04:46:40;34.89;10.29
72355;SHT30;60314;55.040;73.076;2023-05-10T04:52:00;36.17;9.76
72355;SHT30;60314;55.040;73.076;2023-05-10T04:57:20;37.00;9.56
72355;SHT30;60314;55.040;73.076;2023-05-10T05:02:44;38.69;8.73
72355;SHT30;60314;55.040;73.076;2023-05-10T05:08:05;39.04;8.79
72355;SHT30;60314;55.040;73.076;2023-05-10T05:13:25;39.68;8.73
72355;SHT30;60314;55.040;73.076;2023-05-10T05:18:46;40.07;8.79
72355;SHT30;60314;55.040;73.076;2023-05-10T05:24:05;39.91;8.95
72355;SHT30;60314;55.040;73.076;2023-05-10T05:29:07;38.17;9.02
72355;SHT30;60314;55.040;73.076;2023-05-10T05:34:09;37.36;9.22
72355;SHT30;60314;55.040;73.076;2023-05-10T05:39:29;38.82;8.85
72355;SHT30;60314;55.040;73.076;2023-05-10T05:44:49;39.75;8.78
72355;SHT30;60314;55.040;73.076;2023-05-10T05:50:09;39.07;8.83
72355;SHT30;60314;55.040;73.076;2023-05-10T05:55:29;34.99;9.85
72355;SHT30;60314;55.040;73.076;2023-05-10T06:00:51;36.41;9.66
72355;SHT30;60314;55.040;73.076;2023-05-10T06:06:11;32.84;10.84
72355;SHT30;60314;55.040;73.076;2023-05-10T06:11:32;31.37;11.48
72355;SHT30;60314;55.040;73.076;2023-05-10T06:16:52;34.98;9.76
72355;SHT30;60314;55.040;73.076;2023-05-10T06:22:15;33.83;10.36
72355;SHT30;60314;55.040;73.076;2023-05-10T06:27:35;36.12;9.74
72355;SHT30;60314;55.040;73.076;2023-05-10T06:32:55;37.63;9.02
72355;SHT30;60314;55.040;73.076;2023-05-10T06:37:57;37.66;9.17
72355;SHT30;60314;55.040;73.076;2023-05-10T06:43:17;38.29;9.03
72355;SHT30;60314;55.040;73.076;2023-05-10T06:48:37;37.69;9.17
72355;SHT30;60314;55.040;73.076;2023-05-10T06:53:57;37.97;8.72
72355;SHT30;60314;55.040;73.076;2023-05-10T06:59:17;40.15;8.38
72355;SHT30;60314;55.040;73.076;2023-05-10T07:04:39;40.72;8.31
72355;SHT30;60314;55.040;73.076;2023-05-10T07:10:00;41.00;8.16
72355;SHT30;60314;55.040;73.076;2023-05-10T07:15:20;40.45;7.92
72355;SHT30;60314;55.040;73.076;2023-05-10T07:20:49;37.77;9.04
72355;SHT30;60314;55.040;73.076;2023-05-10T07:26:09;35.54;9.06
72355;SHT30;60314;55.040;73.076;2023-05-10T07:31:31;30.13;10.94
72355;SHT30;60314;55.040;73.076;2023-05-10T07:36:51;31.29;10.76
72355;SHT30;60314;55.040;73.076;2023-05-10T07:41:54;32.03;10.40
72355;SHT30;60314;55.040;73.076;2023-05-10T07:46:59;32.14;10.48
72355;SHT30;60314;55.040;73.076;2023-05-10T07:52:44;30.57;11.06
72355;SHT30;60314;55.040;73.076;2023-05-10T07:58:28;31.72;10.80
72355;SHT30;60314;55.040;73.076;2023-05-10T08:04:05;27.22;12.89
72355;SHT30;60314;55.040;73.076;2023-05-10T08:10:02;28.09;12.11
72355;SHT30;60314;55.040;73.076;2023-05-10T08:22:23;23.17;15.13
72355;SHT30;60314;55.040;73.076;2023-05-10T08:28:03;23.54;15.04
72355;SHT30;60314;55.040;73.076;2023-05-10T08:33:23;23.08;15.39
72355;SHT30;60314;55.040;73.076;2023-05-10T08:38:43;23.37;15.52
72355;SHT30;60314;55.040;73.076;2023-05-10T08:44:04;22.18;15.99
72355;SHT30;60314;55.040;73.076;2023-05-10T08:49:07;21.20;16.66
72355;SHT30;60314;55.040;73.076;2023-05-10T08:54:28;19.89;17.80
72355;SHT30;60314;55.040;73.076;2023-05-10T08:59:49;19.56;18.48
72355;SHT30;60314;55.040;73.076;2023-05-10T09:05:10;18.74;18.73
72355;SHT30;60314;55.040;73.076;2023-05-10T09:10:31;17.41;19.73
72355;SHT30;60314;55.040;73.076;2023-05-10T09:15:52;16.83;20.16
72355;SHT30;60314;55.040;73.076;2023-05-10T09:24:05;16.00;20.81
72355;SHT30;60314;55.040;73.076;2023-05-10T09:29:26;16.12;20.98
72355;SHT30;60314;55.040;73.076;2023-05-10T09:35:06;16.08;20.77
72355;SHT30;60314;55.040;73.076;2023-05-10T09:40:27;15.91;21.23
72355;SHT30;60314;55.040;73.076;2023-05-10T09:45:52;16.28;20.73
72355;SHT30;60314;55.040;73.076;2023-05-10T09:50:57;16.64;20.49
72355;SHT30;60314;55.040;73.076;2023-05-10T09:55:59;16.51;19.99
72355;SHT30;60314;55.040;73.076;2023-05-10T10:01:01;16.28;20.44
72355;SHT30;60314;55.040;73.076;2023-05-10T10:06:21;16.22;20.77
72355;SHT30;60314;55.040;73.076;2023-05-10T10:11:41;16.18;20.90
72355;SHT30;60314;55.040;73.076;2023-05-10T10:17:01;16.83;20.15
72355;SHT30;60314;55.040;73.076;2023-05-10T10:22:21;17.59;19.95
72355;SHT30;60314;55.040;73.076;2023-05-10T10:33:36;17.92;19.12
72355;SHT30;60314;55.040;73.076;2023-05-10T10:39:00;17.89;19.13
72355;SHT30;60314;55.040;73.076;2023-05-10T10:55:20;17.79;18.76
72355;SHT30;60314;55.040;73.076;2023-05-10T11:00:45;17.64;19.28
72355;SHT30;60314;55.040;73.076;2023-05-10T11:05:48;18.27;18.90
72355;SHT30;60314;55.040;73.076;2023-05-10T11:11:08;18.33;18.64
72355;SHT30;60314;55.040;73.076;2023-05-10T11:16:43;18.68;18.40
72355;SHT30;60314;55.040;73.076;2023-05-10T11:27:23;19.16;18.01
72355;SHT30;60314;55.040;73.076;2023-05-10T11:32:44;19.14;18.05
72355;SHT30;60314;55.040;73.076;2023-05-10T11:38:10;18.87;17.93
72355;SHT30;60314;55.040;73.076;2023-05-10T11:43:30;18.61;18.27
72355;SHT30;60314;55.040;73.076;2023-05-10T11:48:55;18.16;18.83
72355;SHT30;60314;55.040;73.076;2023-05-10T11:54:16;17.79;18.87
72355;SHT30;60314;55.040;73.076;2023-05-10T11:59:36;17.75;18.98
72355;SHT30;60314;55.040;73.076;2023-05-10T12:04:57;17.45;18.22
72355;SHT30;60314;55.040;73.076;2023-05-10T12:10:12;17.13;18.44
72355;SHT30;60314;55.040;73.076;2023-05-10T12:15:37;16.74;18.37
72355;SHT30;60314;55.040;73.076;2023-05-10T12:21:02;16.77;18.06
72355;SHT30;60314;55.040;73.076;2023-05-10T12:26:23;16.67;18.34
72355;SHT30;60314;55.040;73.076;2023-05-10T12:31:54;16.70;18.40
72355;SHT30;60314;55.040;73.076;2023-05-10T12:37:14;16.80;18.47
72355;SHT30;60314;55.040;73.076;2023-05-10T12:42:35;16.51;18.55
72355;SHT30;60314;55.040;73.076;2023-05-10T12:47:58;16.28;18.93
72355;SHT30;60314;55.040;73.076;2023-05-10T12:53:17;16.05;19.04
72355;SHT30;60314;55.040;73.076;2023-05-10T12:58:38;15.92;19.33
72355;SHT30;60314;55.040;73.076;2023-05-10T13:03:58;15.81;19.62
72355;SHT30;60314;55.040;73.076;2023-05-10T13:09:19;15.53;20.28
72355;SHT30;60314;55.040;73.076;2023-05-10T13:14:21;15.54;20.55
72355;SHT30;60314;55.040;73.076;2023-05-10T13:19:41;15.49;20.82
72355;SHT30;60314;55.040;73.076;2023-05-10T13:25:01;15.32;21.08
72355;SHT30;60314;55.040;73.076;2023-05-10T13:30:22;15.14;21.05
72355;SHT30;60314;55.040;73.076;2023-05-10T13:35:43;15.00;20.77
72355;SHT30;60314;55.040;73.076;2023-05-10T13:41:04;14.91;20.87
72355;SHT30;60314;55.040;73.076;2023-05-10T13:46:24;14.85;21.43
72355;SHT30;60314;55.040;73.076;2023-05-10T13:51:45;14.81;21.40
72355;SHT30;60314;55.040;73.076;2023-05-10T13:57:06;14.82;21.58
72355;SHT30;60314;55.040;73.076;2023-05-10T14:02:26;14.78;21.53
72355;SHT30;60314;55.040;73.076;2023-05-10T14:07:47;14.75;21.34
72355;SHT30;60314;55.040;73.076;2023-05-10T14:13:06;14.75;21.48
72355;SHT30;60314;55.040;73.076;2023-05-10T14:18:08;14.71;21.43
72355;SHT30;60314;55.040;73.076;2023-05-10T14:23:28;14.68;21.83
72355;SHT30;60314;55.040;73.076;2023-05-10T14:28:48;14.71;22.10
72355;SHT30;60314;55.040;73.076;2023-05-10T14:34:09;14.73;23.97
72355;SHT30;60314;55.040;73.076;2023-05-10T14:39:29;14.72;23.84
72355;SHT30;60314;55.040;73.076;2023-05-10T14:44:49;14.72;24.11
72355;SHT30;60314;55.040;73.076;2023-05-10T14:50:11;14.72;24.00
72355;SHT30;60314;55.040;73.076;2023-05-10T14:55:31;14.71;23.60
72355;SHT30;60314;55.040;73.076;2023-05-10T15:00:51;14.61;25.41
72355;SHT30;60314;55.040;73.076;2023-05-10T15:06:14;14.45;26.47
72355;SHT30;60314;55.040;73.076;2023-05-10T15:11:35;14.31;26.44
72355;SHT30;60314;55.040;73.076;2023-05-10T15:16:55;14.25;25.98
72355;SHT30;60314;55.040;73.076;2023-05-10T15:21:57;14.25;25.21
72355;SHT30;60314;55.040;73.076;2023-05-10T15:26:58;14.30;24.41
72355;SHT30;60314;55.040;73.076;2023-05-10T15:32:18;14.31;24.56
72355;SHT30;60314;55.040;73.076;2023-05-10T15:37:38;14.20;25.57
72355;SHT30;60314;55.040;73.076;2023-05-10T15:42:58;14.13;25.58
72355;SHT30;60314;55.040;73.076;2023-05-10T15:48:18;14.13;25.41
72355;SHT30;60314;55.040;73.076;2023-05-10T15:53:38;14.14;25.15
72355;SHT30;60314;55.040;73.076;2023-05-10T15:58:58;14.18;24.38
72355;SHT30;60314;55.040;73.076;2023-05-10T16:04:18;14.14;24.45
72355;SHT30;60314;55.040;73.076;2023-05-10T16:09:38;14.13;24.60
72355;SHT30;60314;55.040;73.076;2023-05-10T16:14:57;14.11;24.89
72355;SHT30;60314;55.040;73.076;2023-05-10T16:20:17;14.07;25.23
72355;SHT30;60314;55.040;73.076;2023-05-10T16:25:37;14.14;25.32
72355;SHT30;60314;55.040;73.076;2023-05-10T16:30:38;14.18;25.89
72355;SHT30;60314;55.040;73.076;2023-05-10T16:35:59;14.17;26.97
72355;SHT30;60314;55.040;73.076;2023-05-10T16:41:18;14.21;27.56
72355;SHT30;60314;55.040;73.076;2023-05-10T16:46:39;14.09;28.39
72355;SHT30;60314;55.040;73.076;2023-05-10T16:52:00;13.84;29.88
72355;SHT30;60314;55.040;73.076;2023-05-10T16:57:20;13.89;30.17
72355;SHT30;60314;55.040;73.076;2023-05-10T17:02:40;13.81;30.67
72355;SHT30;60314;55.040;73.076;2023-05-10T17:08:00;13.62;31.82
72355;SHT30;60314;55.040;73.076;2023-05-10T17:13:20;13.45;32.81
72355;SHT30;60314;55.040;73.076;2023-05-10T17:18:40;13.36;33.12
72355;SHT30;60314;55.040;73.076;2023-05-10T17:24:00;13.29;33.48
72355;SHT30;60314;55.040;73.076;2023-05-10T17:29:21;13.35;33.69
72355;SHT30;60314;55.040;73.076;2023-05-10T17:34:22;13.42;34.11
72355;SHT30;60314;55.040;73.076;2023-05-10T17:39:42;13.32;34.80
72355;SHT30;60314;55.040;73.076;2023-05-10T17:45:05;13.32;35.02
72355;SHT30;60314;55.040;73.076;2023-05-10T17:50:25;13.29;35.54
72355;SHT30;60314;55.040;73.076;2023-05-10T17:55:45;13.26;35.32
72355;SHT30;60314;55.040;73.076;2023-05-10T18:01:05;13.26;35.25
72355;SHT30;60314;55.040;73.076;2023-05-10T18:06:25;13.09;39.73
72355;SHT30;60314;55.040;73.076;2023-05-10T18:11:45;13.28;35.39
72355;SHT30;60314;55.040;73.076;2023-05-10T18:17:05;13.35;34.02
72355;SHT30;60314;55.040;73.076;2023-05-10T18:22:25;13.39;33.85
72355;SHT30;60314;55.040;73.076;2023-05-10T18:27:45;13.04;39.76
72355;SHT30;60314;55.040;73.076;2023-05-10T18:33:06;12.98;37.19
72355;SHT30;60314;55.040;73.076;2023-05-10T18:38:08;12.81;37.66
72355;SHT30;60314;55.040;73.076;2023-05-10T18:43:09;12.78;38.38
72355;SHT30;60314;55.040;73.076;2023-05-10T18:48:29;12.23;45.40
72355;SHT30;60314;55.040;73.076;2023-05-10T18:53:49;12.00;43.87
72355;SHT30;60314;55.040;73.076;2023-05-10T18:59:10;11.90;45.98
72355;SHT30;60314;55.040;73.076;2023-05-10T19:04:30;11.92;45.42
72355;SHT30;60314;55.040;73.076;2023-05-10T19:09:51;11.90;44.82
72355;SHT30;60314;55.040;73.076;2023-05-10T19:15:11;12.08;45.37
72355;SHT30;60314;55.040;73.076;2023-05-10T19:20:31;10.75;68.69
72355;SHT30;60314;55.040;73.076;2023-05-10T19:25:51;9.78;78.23
72355;SHT30;60314;55.040;73.076;2023-05-10T19:31:11;9.70;81.38
72355;SHT30;60314;55.040;73.076;2023-05-10T19:36:31;9.80;78.38
72355;SHT30;60314;55.040;73.076;2023-05-10T19:41:51;9.81;78.70
72355;SHT30;60314;55.040;73.076;2023-05-10T19:46:52;9.90;76.19
72355;SHT30;60314;55.040;73.076;2023-05-10T19:51:54;10.04;70.79
72355;SHT30;60314;55.040;73.076;2023-05-10T19:57:14;9.73;74.61
72355;SHT30;60314;55.040;73.076;2023-05-10T20:02:33;9.19;78.02
72355;SHT30;60314;55.040;73.076;2023-05-10T20:07:53;9.08;80.52
72355;SHT30;60314;55.040;73.076;2023-05-10T20:13:13;8.83;82.47
72355;SHT30;60314;55.040;73.076;2023-05-10T20:18:33;8.83;83.13
72355;SHT30;60314;55.040;73.076;2023-05-10T20:23:52;8.60;85.14
72355;SHT30;60314;55.040;73.076;2023-05-10T20:29:12;8.43;85.92
72355;SHT30;60314;55.040;73.076;2023-05-10T20:34:33;8.23;88.41
72355;SHT30;60314;55.040;73.076;2023-05-10T20:39:54;7.94;89.30
72355;SHT30;60314;55.040;73.076;2023-05-10T20:45:17;7.96;91.55
72355;SHT30;60314;55.040;73.076;2023-05-10T20:50:37;8.38;93.51
72355;SHT30;60314;55.040;73.076;2023-05-10T20:55:38;8.68;93.42
72355;SHT30;60314;55.040;73.076;2023-05-10T21:01:00;8.69;91.57
72355;SHT30;60314;55.040;73.076;2023-05-10T21:06:20;8.57;90.35
72355;SHT30;60314;55.040;73.076;2023-05-10T21:11:40;8.54;90.55
72355;SHT30;60314;55.040;73.076;2023-05-10T21:17:00;8.68;91.13
72355;SHT30;60314;55.040;73.076;2023-05-10T21:22:20;8.78;90.88
72355;SHT30;60314;55.040;73.076;2023-05-10T21:27:39;8.74;90.10
72355;SHT30;60314;55.040;73.076;2023-05-10T21:33:00;8.79;90.11
72355;SHT30;60314;55.040;73.076;2023-05-10T21:38:21;8.81;89.96
72355;SHT30;60314;55.040;73.076;2023-05-10T21:43:42;8.74;90.32
72355;SHT30;60314;55.040;73.076;2023-05-10T21:49:02;8.67;89.95
72355;SHT30;60314;55.040;73.076;2023-05-10T21:54:22;8.65;89.74
72355;SHT30;60314;55.040;73.076;2023-05-10T21:59:23;8.64;89.77
72355;SHT30;60314;55.040;73.076;2023-05-10T22:04:24;8.69;89.99
72355;SHT30;60314;55.040;73.076;2023-05-10T22:09:45;8.58;89.20
72355;SHT30;60314;55.040;73.076;2023-05-10T22:15:05;8.52;89.72
72355;SHT30;60314;55.040;73.076;2023-05-10T22:20:25;8.38;89.34
72355;SHT30;60314;55.040;73.076;2023-05-10T22:25:45;8.40;90.66
72355;SHT30;60314;55.040;73.076;2023-05-10T22:31:09;8.29;90.83
72355;SHT30;60314;55.040;73.076;2023-05-10T22:36:30;8.21;91.42
72355;SHT30;60314;55.040;73.076;2023-05-10T22:41:51;8.11;91.36
72355;SHT30;60314;55.040;73.076;2023-05-10T22:47:11;8.09;91.67
72355;SHT30;60314;55.040;73.076;2023-05-10T22:52:31;7.93;91.73
72355;SHT30;60314;55.040;73.076;2023-05-10T22:57:52;7.75;92.66
72355;SHT30;60314;55.040;73.076;2023-05-10T23:03:12;7.69;93.21
72355;SHT30;60314;55.040;73.076;2023-05-10T23:08:14;7.70;93.54
72355;SHT30;60314;55.040;73.076;2023-05-10T23:13:35;7.65;93.21
72355;SHT30;60314;55.040;73.076;2023-05-10T23:18:56;7.54;93.34
72355;SHT30;60314;55.040;73.076;2023-05-10T23:24:16;7.58;93.51
72355;SHT30;60314;55.040;73.076;2023-05-10T23:29:36;7.44;93.52
72355;SHT30;60314;55.040;73.076;2023-05-10T23:34:56;7.42;94.02
72355;SHT30;60314;55.040;73.076;2023-05-10T23:40:16;7.31;94.16
72355;SHT30;60314;55.040;73.076;2023-05-10T23:45:37;7.38;95.04
72355;SHT30;60314;55.040;73.076;2023-05-10T23:50:57;7.18;94.57
72355;SHT30;60314;55.040;73.076;2023-05-10T23:56:18;7.17;95.19
